Time;durP1;ratioP1;P1;durP2;ratioP2;P2;SDS_P1;SDS_P2;PMS_P1;PMS_P2;Temp;Humidity;BMP_temperature;BMP_pressure;BME280_temperature;BME280_humidity;BME280_pressure;Samples;Min_cycle;Max_cycle;Signal;HPM_P1;HPM_P2
2023/07/31 00:00:59;;;;;;;3.10;2.05;;;;;;;;;;4990364;28;93933;-71
2023/07/31 00:03:26;;;;;;;3.38;2.17;;;;;;;;;;4990242;28;92225;-73
2023/07/31 00:05:52;;;;;;;2.80;1.90;;;;;;;;;;4990208;28;92481;-73
2023/07/31 00:08:19;;;;;;;4.57;2.22;;;;;;;;;;4990886;28;93406;-75
2023/07/31 00:10:45;;;;;;;2.50;1.95;;;;;;;;;;4987842;28;96407;-75
2023/07/31 00:13:11;;;;;;;3.10;2.15;;;;;;;;;;4989050;28;95653;-74
2023/07/31 00:15:38;;;;;;;4.95;2.13;;;;;;;;;;4985940;28;93650;-75
2023/07/31 00:18:04;;;;;;;3.40;2.13;;;;;;;;;;4992177;28;92527;-75
2023/07/31 00:20:31;;;;;;;2.33;2.03;;;;;;;;;;4999509;28;93630;-75
2023/07/31 00:22:57;;;;;;;2.95;1.98;;;;;;;;;;4992591;28;92381;-75
2023/07/31 00:25:24;;;;;;;7.60;2.55;;;;;;;;;;4992358;28;93050;-75
2023/07/31 00:27:50;;;;;;;6.13;2.90;;;;;;;;;;4993200;28;92649;-76
2023/07/31 00:30:16;;;;;;;12.35;4.35;;;;;;;;;;4991660;28;92564;-76
2023/07/31 00:32:43;;;;;;;15.50;4.85;;;;;;;;;;4996664;28;93145;-76
2023/07/31 00:35:09;;;;;;;12.93;4.60;;;;;;;;;;4989773;28;95804;-75
2023/07/31 00:37:36;;;;;;;19.67;5.10;;;;;;;;;;4988803;28;92720;-76
2023/07/31 00:40:03;;;;;;;29.35;6.10;;;;;;;;;;5000401;28;93148;-76
2023/07/31 00:42:30;;;;;;;24.88;6.20;;;;;;;;;;4996462;28;92891;-75
2023/07/31 00:44:56;;;;;;;39.72;8.18;;;;;;;;;;4995038;28;92497;-75
2023/07/31 00:47:22;;;;;;;38.15;7.47;;;;;;;;;;4991771;28;93426;-75
2023/07/31 00:49:49;;;;;;;37.42;7.95;;;;;;;;;;4992874;28;92567;-76
2023/07/31 00:52:15;;;;;;;42.55;8.93;;;;;;;;;;4993671;28;93167;-76
2023/07/31 00:54:42;;;;;;;43.13;8.43;;;;;;;;;;4992815;28;93728;-76
2023/07/31 00:57:08;;;;;;;41.80;9.38;;;;;;;;;;4990843;28;93358;-76
2023/07/31 00:59:35;;;;;;;57.60;10.10;;;;;;;;;;4992947;28;96614;-76
2023/07/31 01:02:02;;;;;;;48.28;9.30;;;;;;;;;;4995794;28;93453;-76
2023/07/31 01:04:29;;;;;;;44.63;9.95;;;;;;;;;;4992522;28;92575;-76
2023/07/31 01:06:55;;;;;;;50.22;10.05;;;;;;;;;;4993182;28;93364;-76
2023/07/31 01:09:29;;;;;;;45.35;9.52;;;;;;;;;;4990606;28;93038;-76
2023/07/31 01:12:01;;;;;;;45.83;9.43;;;;;;;;;;4993682;28;92982;-75
2023/07/31 01:14:27;;;;;;;41.25;9.13;;;;;;;;;;4989342;28;93305;-75
2023/07/31 01:16:54;;;;;;;34.28;9.55;;;;;;;;;;4984857;28;91867;-74
2023/07/31 01:19:25;;;;;;;44.05;8.77;;;;;;;;;;4992845;28;92626;-76
2023/07/31 01:21:51;;;;;;;;;;;;;;;;;;4997498;28;93694;-73
2023/07/31 01:24:22;;;;;;;38.00;9.40;;;;;;;;;;4992606;28;123982;-73
2023/07/31 01:27:02;;;;;;;42.08;9.80;;;;;;;;;;4988801;28;93482;-74
2023/07/31 01:29:33;;;;;;;34.28;9.85;;;;;;;;;;4995149;28;92523;-72
2023/07/31 01:32:02;;;;;;;33.35;8.48;;;;;;;;;;4986504;28;92707;-73
2023/07/31 01:34:28;;;;;;;37.20;8.88;;;;;;;;;;4995099;28;93494;-73
2023/07/31 01:36:55;;;;;;;36.97;8.82;;;;;;;;;;4994621;28;92519;-73
2023/07/31 01:39:22;;;;;;;26.85;8.27;;;;;;;;;;4994884;28;93017;-72
2023/07/31 01:41:48;;;;;;;30.17;8.70;;;;;;;;;;4994393;28;92694;-75
2023/07/31 01:44:14;;;;;;;39.05;8.35;;;;;;;;;;4996367;28;92489;-73
2023/07/31 01:46:41;;;;;;;27.83;7.75;;;;;;;;;;4993744;28;93396;-74
2023/07/31 01:49:08;;;;;;;33.75;7.60;;;;;;;;;;4997296;28;94894;-73
2023/07/31 01:51:34;;;;;;;37.95;8.32;;;;;;;;;;4994645;28;96714;-73
2023/07/31 01:54:01;;;;;;;40.28;8.93;;;;;;;;;;4993619;28;93534;-73
2023/07/31 01:56:27;;;;;;;43.05;10.40;;;;;;;;;;4993275;28;92458;-74
2023/07/31 01:58:54;;;;;;;44.60;8.80;;;;;;;;;;4991179;28;92375;-74
2023/07/31 02:01:20;;;;;;;36.80;9.40;;;;;;;;;;4992046;28;93468;-74
2023/07/31 02:03:46;;;;;;;21.98;6.70;;;;;;;;;;4992594;28;92535;-75
2023/07/31 02:06:13;;;;;;;27.83;7.40;;;;;;;;;;4992145;28;93032;-74
2023/07/31 02:08:39;;;;;;;28.65;6.03;;;;;;;;;;4997488;28;92611;-73
2023/07/31 02:11:06;;;;;;;25.45;6.43;;;;;;;;;;4990412;28;93079;-73
2023/07/31 02:13:32;;;;;;;20.38;5.55;;;;;;;;;;4989650;28;95814;-73
2023/07/31 02:15:59;;;;;;;25.77;6.53;;;;;;;;;;4988078;28;93340;-73
2023/07/31 02:18:25;;;;;;;20.15;5.60;;;;;;;;;;4995267;28;93203;-73
2023/07/31 02:20:52;;;;;;;20.05;5.65;;;;;;;;;;4992434;28;93449;-73
2023/07/31 02:23:19;;;;;;;16.20;5.15;;;;;;;;;;4999081;28;92475;-73
2023/07/31 02:25:45;;;;;;;21.40;6.28;;;;;;;;;;4994153;28;93218;-72
2023/07/31 02:28:12;;;;;;;25.67;6.45;;;;;;;;;;5000182;28;94302;-72
2023/07/31 02:30:39;;;;;;;25.50;6.30;;;;;;;;;;4993122;28;92959;-74
2023/07/31 02:33:05;;;;;;;25.65;6.78;;;;;;;;;;4993490;28;93751;-75
2023/07/31 02:35:32;;;;;;;26.08;6.55;;;;;;;;;;4991409;28;93126;-73
2023/07/31 02:37:58;;;;;;;27.08;6.15;;;;;;;;;;4990263;28;94817;-73
2023/07/31 02:40:24;;;;;;;25.02;5.75;;;;;;;;;;4990341;28;92551;-73
2023/07/31 02:42:51;;;;;;;29.88;7.00;;;;;;;;;;4995757;28;92638;-73
2023/07/31 02:45:17;;;;;;;25.27;6.95;;;;;;;;;;4991291;28;93148;-73
2023/07/31 02:47:43;;;;;;;24.63;6.07;;;;;;;;;;4988600;28;93585;-74
2023/07/31 02:50:10;;;;;;;25.88;6.85;;;;;;;;;;4990050;28;93889;-76
2023/07/31 02:52:36;;;;;;;26.00;6.97;;;;;;;;;;4992614;28;93897;-75
2023/07/31 02:55:03;;;;;;;34.95;7.60;;;;;;;;;;4990679;28;91835;-73
2023/07/31 02:57:29;;;;;;;39.42;8.45;;;;;;;;;;4989954;28;92772;-74
2023/07/31 02:59:55;;;;;;;31.25;7.13;;;;;;;;;;4992915;28;94851;-74
2023/07/31 03:02:22;;;;;;;26.77;6.85;;;;;;;;;;4987793;28;95037;-74
2023/07/31 03:04:48;;;;;;;31.75;8.35;;;;;;;;;;4990824;28;95592;-74
2023/07/31 03:07:15;;;;;;;39.58;9.38;;;;;;;;;;4991916;28;93400;-74
2023/07/31 03:09:41;;;;;;;31.98;8.35;;;;;;;;;;4987254;28;92578;-76
2023/07/31 03:12:08;;;;;;;29.50;7.95;;;;;;;;;;4993825;28;93906;-76
2023/07/31 03:14:34;;;;;;;29.92;8.02;;;;;;;;;;4991865;28;92817;-76
2023/07/31 03:17:00;;;;;;;35.03;8.55;;;;;;;;;;4990959;28;93319;-76
2023/07/31 03:19:29;;;;;;;42.13;9.90;;;;;;;;;;4988224;28;93349;-76
2023/07/31 03:21:56;;;;;;;32.63;8.85;;;;;;;;;;4991376;28;92439;-76
2023/07/31 03:24:22;;;;;;;29.35;8.00;;;;;;;;;;4992138;28;93162;-75
2023/07/31 03:26:49;;;;;;;38.20;9.48;;;;;;;;;;4988780;28;95748;-75
2023/07/31 03:29:15;;;;;;;36.88;9.10;;;;;;;;;;4991971;28;92538;-75
2023/07/31 03:31:41;;;;;;;40.40;8.38;;;;;;;;;;4994909;28;92531;-75
2023/07/31 03:34:08;;;;;;;34.72;8.27;;;;;;;;;;4989105;28;92669;-73
2023/07/31 03:36:34;;;;;;;39.78;8.32;;;;;;;;;;4992751;28;93963;-77
2023/07/31 03:39:01;;;;;;;38.72;8.23;;;;;;;;;;4989489;28;93752;-77
2023/07/31 03:41:27;;;;;;;25.45;8.15;;;;;;;;;;4994567;28;92406;-74
2023/07/31 03:43:55;;;;;;;25.65;8.48;;;;;;;;;;4995124;28;93096;-74
2023/07/31 03:46:22;;;;;;;34.78;9.27;;;;;;;;;;4990598;28;93456;-75
2023/07/31 03:48:49;;;;;;;35.58;8.45;;;;;;;;;;4986885;28;92565;-76
2023/07/31 03:51:16;;;;;;;31.60;8.45;;;;;;;;;;4990466;28;94901;-75
2023/07/31 03:53:43;;;;;;;34.85;9.75;;;;;;;;;;4991630;28;93302;-75
2023/07/31 03:56:10;;;;;;;30.80;8.88;;;;;;;;;;4994153;28;92974;-75
2023/07/31 03:58:36;;;;;;;31.55;8.27;;;;;;;;;;4992718;28;93684;-75
2023/07/31 04:01:03;;;;;;;33.38;7.95;;;;;;;;;;4989880;28;92613;-75
2023/07/31 04:03:30;;;;;;;45.75;9.02;;;;;;;;;;4990873;28;92429;-75
2023/07/31 04:05:56;;;;;;;32.25;8.60;;;;;;;;;;4990283;28;93407;-75
2023/07/31 04:08:23;;;;;;;37.42;8.32;;;;;;;;;;4999906;28;92946;-75
2023/07/31 04:10:49;;;;;;;23.98;7.90;;;;;;;;;;4991407;28;92432;-75
2023/07/31 04:13:16;;;;;;;28.98;8.80;;;;;;;;;;4994278;28;93417;-75
2023/07/31 04:15:42;;;;;;;45.90;8.40;;;;;;;;;;4997589;28;95083;-74
2023/07/31 04:18:08;;;;;;;27.48;8.32;;;;;;;;;;4994060;28;94160;-77
2023/07/31 04:20:35;;;;;;;32.20;8.73;;;;;;;;;;4995489;28;92482;-74
2023/07/31 04:23:01;;;;;;;27.40;8.38;;;;;;;;;;4995656;28;93107;-74
2023/07/31 04:25:28;;;;;;;35.45;7.80;;;;;;;;;;4993654;28;92477;-76
2023/07/31 04:27:54;;;;;;;24.00;7.45;;;;;;;;;;4993667;28;92443;-76
2023/07/31 04:30:20;;;;;;;25.15;8.25;;;;;;;;;;4989561;28;93121;-75
2023/07/31 04:32:47;;;;;;;27.08;7.47;;;;;;;;;;4993159;28;92601;-75
2023/07/31 04:35:13;;;;;;;31.58;7.50;;;;;;;;;;4995152;28;92539;-75
2023/07/31 04:37:40;;;;;;;30.10;9.00;;;;;;;;;;4995834;28;93224;-76
2023/07/31 04:40:06;;;;;;;31.42;8.25;;;;;;;;;;4995088;28;94914;-76
2023/07/31 04:42:33;;;;;;;30.17;7.90;;;;;;;;;;4993755;28;95719;-76
2023/07/31 04:44:59;;;;;;;24.80;7.95;;;;;;;;;;4993716;28;94376;-73
2023/07/31 04:47:25;;;;;;;28.92;7.93;;;;;;;;;;4994629;28;92656;-73
2023/07/31 04:49:52;;;;;;;23.50;7.47;;;;;;;;;;4990292;28;93154;-73
2023/07/31 04:52:18;;;;;;;36.03;8.48;;;;;;;;;;4993840;28;93394;-73
2023/07/31 04:54:45;;;;;;;37.47;8.27;;;;;;;;;;4989987;28;92565;-75
2023/07/31 04:57:11;;;;;;;39.15;8.38;;;;;;;;;;4989664;28;94267;-74
2023/07/31 04:59:37;;;;;;;30.08;7.88;;;;;;;;;;4996983;28;93639;-73
2023/07/31 05:02:04;;;;;;;31.40;7.80;;;;;;;;;;4996035;28;93190;-73
2023/07/31 05:04:30;;;;;;;29.85;8.20;;;;;;;;;;4995877;28;96081;-73
2023/07/31 05:06:57;;;;;;;32.97;8.30;;;;;;;;;;4994487;28;93332;-73
2023/07/31 05:09:23;;;;;;;37.15;8.57;;;;;;;;;;4989125;28;94113;-73
2023/07/31 05:11:49;;;;;;;20.90;7.50;;;;;;;;;;4990030;28;94083;-73
2023/07/31 05:14:16;;;;;;;25.70;7.85;;;;;;;;;;4990190;28;92478;-74
2023/07/31 05:16:42;;;;;;;26.55;7.80;;;;;;;;;;4989160;28;93454;-73
2023/07/31 05:19:09;;;;;;;26.00;7.25;;;;;;;;;;4988713;28;93406;-73
2023/07/31 05:21:36;;;;;;;27.83;7.53;;;;;;;;;;4997257;28;91636;-73
2023/07/31 05:24:02;;;;;;;27.67;7.15;;;;;;;;;;4992474;28;94078;-73
2023/07/31 05:26:29;;;;;;;25.17;6.50;;;;;;;;;;4994356;28;92541;-73
2023/07/31 05:28:55;;;;;;;24.38;6.80;;;;;;;;;;4995568;28;94736;-73
2023/07/31 05:31:22;;;;;;;17.40;5.80;;;;;;;;;;4998888;28;93344;-73
2023/07/31 05:33:50;;;;;;;18.90;6.32;;;;;;;;;;4998553;28;92459;-72
2023/07/31 05:36:16;;;;;;;15.48;5.72;;;;;;;;;;4999053;28;93014;-72
2023/07/31 05:38:46;;;;;;;17.13;5.65;;;;;;;;;;4996841;28;94529;-73
2023/07/31 05:41:12;;;;;;;18.48;5.10;;;;;;;;;;4997706;28;92519;-73
2023/07/31 05:43:38;;;;;;;19.58;5.53;;;;;;;;;;4993259;28;93448;-73
2023/07/31 05:46:06;;;;;;;19.85;5.65;;;;;;;;;;4997483;28;92009;-73
2023/07/31 05:48:36;;;;;;;13.77;5.18;;;;;;;;;;4994683;28;94100;-75
2023/07/31 05:51:02;;;;;;;12.50;5.47;;;;;;;;;;4994128;28;93363;-75
2023/07/31 05:53:29;;;;;;;14.65;5.18;;;;;;;;;;4992504;28;95274;-76
2023/07/31 05:55:55;;;;;;;12.80;5.88;;;;;;;;;;5000216;28;95547;-75
2023/07/31 05:58:21;;;;;;;15.13;5.70;;;;;;;;;;4988656;28;93397;-77
2023/07/31 06:00:48;;;;;;;16.10;5.90;;;;;;;;;;4989258;28;92406;-77
2023/07/31 06:03:14;;;;;;;14.85;6.47;;;;;;;;;;5008041;28;92489;-76
2023/07/31 06:05:41;;;;;;;26.27;6.03;;;;;;;;;;4999472;28;92426;-75
2023/07/31 06:08:07;;;;;;;19.02;6.35;;;;;;;;;;4991820;28;93126;-76
2023/07/31 06:10:34;;;;;;;14.43;6.00;;;;;;;;;;4996229;28;92821;-76
2023/07/31 06:13:01;;;;;;;16.15;5.90;;;;;;;;;;4993894;28;92781;-76
2023/07/31 06:15:27;;;;;;;17.23;5.78;;;;;;;;;;4993456;28;93120;-74
2023/07/31 06:17:53;;;;;;;13.98;5.68;;;;;;;;;;4990028;28;95812;-75
2023/07/31 06:20:20;;;;;;;12.18;5.50;;;;;;;;;;4995145;28;92527;-75
2023/07/31 06:22:47;;;;;;;17.08;5.72;;;;;;;;;;4990342;28;93544;-73
2023/07/31 06:25:13;;;;;;;15.00;5.68;;;;;;;;;;4992565;28;93412;-73
2023/07/31 06:27:41;;;;;;;15.98;5.60;;;;;;;;;;4993364;28;92480;-73
2023/07/31 06:30:07;;;;;;;11.55;4.90;;;;;;;;;;4989715;28;92933;-73
2023/07/31 06:32:34;;;;;;;10.80;5.13;;;;;;;;;;4992524;28;93047;-73
2023/07/31 06:35:00;;;;;;;15.68;5.00;;;;;;;;;;4997052;28;93139;-74
2023/07/31 06:37:26;;;;;;;11.55;4.45;;;;;;;;;;4990716;28;93539;-74
2023/07/31 06:39:53;;;;;;;13.05;4.63;;;;;;;;;;4992982;28;94667;-73
2023/07/31 06:42:19;;;;;;;11.43;4.05;;;;;;;;;;5001932;28;94910;-73
2023/07/31 06:44:46;;;;;;;10.23;4.55;;;;;;;;;;4992194;28;93853;-72
2023/07/31 06:47:12;;;;;;;9.77;4.15;;;;;;;;;;4993590;28;92497;-73
2023/07/31 06:49:39;;;;;;;10.30;3.92;;;;;;;;;;4991717;28;93610;-73
2023/07/31 06:52:05;;;;;;;10.00;4.15;;;;;;;;;;4990982;28;94537;-71
2023/07/31 06:54:31;;;;;;;11.05;4.22;;;;;;;;;;4983989;28;93231;-72
2023/07/31 06:56:58;;;;;;;11.95;4.63;;;;;;;;;;4991695;28;93411;-73
2023/07/31 06:59:24;;;;;;;13.15;4.85;;;;;;;;;;4991149;28;92503;-73
2023/07/31 07:01:50;;;;;;;18.40;4.70;;;;;;;;;;4991916;28;92664;-72
2023/07/31 07:04:17;;;;;;;8.65;3.78;;;;;;;;;;4992557;28;93089;-72
2023/07/31 07:06:43;;;;;;;11.80;4.40;;;;;;;;;;4984787;28;95009;-73
2023/07/31 07:09:10;;;;;;;9.55;3.80;;;;;;;;;;4992626;28;95703;-73
2023/07/31 07:11:37;;;;;;;9.00;3.92;;;;;;;;;;4986456;28;92498;-73
2023/07/31 07:14:03;;;;;;;9.07;4.18;;;;;;;;;;4994036;28;93295;-73
2023/07/31 07:16:30;;;;;;;7.18;3.88;;;;;;;;;;4988094;28;96258;-73
2023/07/31 07:18:56;;;;;;;6.85;4.60;;;;;;;;;;4991557;28;92577;-73
2023/07/31 07:21:29;;;;;;;7.90;4.05;;;;;;;;;;4988570;28;93064;-73
2023/07/31 07:23:56;;;;;;;7.72;4.30;;;;;;;;;;4989185;28;93788;-74
2023/07/31 07:26:22;;;;;;;8.25;4.38;;;;;;;;;;4993222;28;92645;-73
2023/07/31 07:28:49;;;;;;;8.63;4.30;;;;;;;;;;4994772;28;93076;-73
2023/07/31 07:31:15;;;;;;;9.15;4.07;;;;;;;;;;4998941;28;94904;-73
2023/07/31 07:33:42;;;;;;;8.48;4.90;;;;;;;;;;4992997;28;94397;-73
2023/07/31 07:36:09;;;;;;;6.22;4.03;;;;;;;;;;4992447;28;93382;-73
2023/07/31 07:38:37;;;;;;;8.57;3.97;;;;;;;;;;4997803;28;93434;-72
2023/07/31 07:41:03;;;;;;;8.70;4.28;;;;;;;;;;4991673;28;93654;-72
2023/07/31 07:43:29;;;;;;;11.25;4.35;;;;;;;;;;4992221;28;93453;-74
2023/07/31 07:45:56;;;;;;;13.27;4.28;;;;;;;;;;4990971;28;92778;-72
2023/07/31 07:48:22;;;;;;;7.88;4.35;;;;;;;;;;4993543;28;93097;-73
2023/07/31 07:50:48;;;;;;;7.95;3.90;;;;;;;;;;4999651;28;92551;-73
2023/07/31 07:53:15;;;;;;;6.78;3.40;;;;;;;;;;4992271;28;93154;-73
2023/07/31 07:55:41;;;;;;;7.72;3.88;;;;;;;;;;4984815;28;97192;-73
2023/07/31 07:58:08;;;;;;;5.72;3.70;;;;;;;;;;4991997;28;92449;-73
2023/07/31 08:00:34;;;;;;;8.90;3.50;;;;;;;;;;4991044;28;93142;-73
2023/07/31 08:03:01;;;;;;;5.65;2.97;;;;;;;;;;4989268;28;93408;-73
2023/07/31 08:05:27;;;;;;;4.75;2.80;;;;;;;;;;4989297;28;95636;-73
2023/07/31 08:07:56;;;;;;;8.85;2.95;;;;;;;;;;4987229;28;93185;-73
2023/07/31 08:10:22;;;;;;;5.40;3.10;;;;;;;;;;4990452;28;93127;-72
2023/07/31 08:12:49;;;;;;;7.65;3.22;;;;;;;;;;4991710;28;93001;-73
2023/07/31 08:15:15;;;;;;;7.32;2.78;;;;;;;;;;4985930;28;93634;-73
2023/07/31 08:17:42;;;;;;;10.05;3.25;;;;;;;;;;4993518;28;92684;-72
2023/07/31 08:20:09;;;;;;;6.82;3.03;;;;;;;;;;4989850;28;94790;-72
2023/07/31 08:22:35;;;;;;;6.32;2.85;;;;;;;;;;4988495;28;94239;-72
2023/07/31 08:25:03;;;;;;;4.97;2.80;;;;;;;;;;4992022;28;92609;-73
2023/07/31 08:27:29;;;;;;;4.63;2.45;;;;;;;;;;4985451;28;94509;-72
2023/07/31 08:29:55;;;;;;;9.52;3.10;;;;;;;;;;4992094;28;93846;-73
2023/07/31 08:32:22;;;;;;;3.72;2.65;;;;;;;;;;4989765;28;92980;-69
2023/07/31 08:34:49;;;;;;;3.53;2.40;;;;;;;;;;4991382;28;93178;-70
2023/07/31 08:37:15;;;;;;;4.20;2.97;;;;;;;;;;4984098;28;91979;-70
2023/07/31 08:39:41;;;;;;;8.48;3.00;;;;;;;;;;4992114;28;92584;-70
2023/07/31 08:42:08;;;;;;;4.85;2.17;;;;;;;;;;4995428;28;94945;-70
2023/07/31 08:44:35;;;;;;;5.40;2.40;;;;;;;;;;4987076;28;96309;-70
2023/07/31 08:47:01;;;;;;;2.58;2.13;;;;;;;;;;4990868;28;95469;-71
2023/07/31 08:49:29;;;;;;;2.42;2.22;;;;;;;;;;4987286;28;93371;-70
2023/07/31 08:51:57;;;;;;;3.67;2.20;;;;;;;;;;4991667;28;93040;-70
2023/07/31 08:54:24;;;;;;;2.40;1.98;;;;;;;;;;4988088;28;94270;-70
2023/07/31 08:56:51;;;;;;;4.00;2.08;;;;;;;;;;4997945;28;96979;-70
2023/07/31 08:59:18;;;;;;;3.50;2.40;;;;;;;;;;4998154;28;93143;-70
2023/07/31 09:01:49;;;;;;;2.85;2.40;;;;;;;;;;4991395;28;94152;-69
2023/07/31 09:04:16;;;;;;;3.97;2.55;;;;;;;;;;4995378;28;92602;-70
2023/07/31 09:06:43;;;;;;;2.90;2.47;;;;;;;;;;4991503;28;94068;-70
2023/07/31 09:09:10;;;;;;;8.52;2.65;;;;;;;;;;4987766;28;94962;-70
2023/07/31 09:11:36;;;;;;;3.17;2.75;;;;;;;;;;4993860;28;92600;-70
2023/07/31 09:14:08;;;;;;;6.47;3.10;;;;;;;;;;4991325;28;93124;-70
2023/07/31 09:16:35;;;;;;;5.07;3.00;;;;;;;;;;4992207;28;93407;-71
2023/07/31 09:19:03;;;;;;;3.08;2.40;;;;;;;;;;4992711;28;92576;-70
2023/07/31 09:21:29;;;;;;;7.40;3.00;;;;;;;;;;4993928;28;92938;-70
2023/07/31 09:23:56;;;;;;;3.97;3.15;;;;;;;;;;4988728;28;92453;-69
2023/07/31 09:26:33;;;;;;;5.50;3.50;;;;;;;;;;5004659;28;96714;-70
2023/07/31 09:28:59;;;;;;;4.22;3.40;;;;;;;;;;4988744;28;93805;-70
2023/07/31 09:31:39;;;;;;;5.35;3.33;;;;;;;;;;4990933;28;92925;-70
2023/07/31 09:34:05;;;;;;;6.73;3.40;;;;;;;;;;4980073;28;95486;-70
2023/07/31 09:36:32;;;;;;;6.45;3.67;;;;;;;;;;4993200;28;93485;-69
2023/07/31 09:39:01;;;;;;;11.00;3.70;;;;;;;;;;4991865;28;94306;-69
2023/07/31 09:41:28;;;;;;;15.15;3.70;;;;;;;;;;4991102;28;93386;-70
2023/07/31 09:43:54;;;;;;;7.00;3.67;;;;;;;;;;4987604;28;93929;-69
2023/07/31 09:46:21;;;;;;;5.45;3.47;;;;;;;;;;4988084;28;93760;-70
2023/07/31 09:48:48;;;;;;;5.45;3.60;;;;;;;;;;4992167;28;94614;-70
2023/07/31 09:51:14;;;;;;;5.97;3.47;;;;;;;;;;4991389;28;92295;-70
2023/07/31 09:53:40;;;;;;;7.22;3.53;;;;;;;;;;4990550;28;92874;-70
2023/07/31 09:56:07;;;;;;;6.65;3.35;;;;;;;;;;4995045;28;92592;-70
2023/07/31 09:58:35;;;;;;;3.67;2.90;;;;;;;;;;4989306;28;95092;-69
2023/07/31 10:01:02;;;;;;;4.88;3.15;;;;;;;;;;4993289;28;95660;-69
2023/07/31 10:03:29;;;;;;;5.05;3.05;;;;;;;;;;4993500;28;92442;-70
2023/07/31 10:05:56;;;;;;;7.60;3.42;;;;;;;;;;4992265;28;93810;-70
2023/07/31 10:08:26;;;;;;;6.07;4.15;;;;;;;;;;4988812;28;93501;-71
2023/07/31 10:10:53;;;;;;;5.30;4.00;;;;;;;;;;4989077;28;92616;-71
2023/07/31 10:13:22;;;;;;;14.55;4.88;;;;;;;;;;4991453;28;93087;-70
2023/07/31 10:15:48;;;;;;;6.45;4.78;;;;;;;;;;4992404;28;92477;-71
2023/07/31 10:18:15;;;;;;;12.52;4.63;;;;;;;;;;4993419;28;92418;-69
2023/07/31 10:20:41;;;;;;;8.73;5.00;;;;;;;;;;4993067;28;93141;-71
2023/07/31 10:23:08;;;;;;;10.25;5.25;;;;;;;;;;4991329;28;96704;-69
2023/07/31 10:25:35;;;;;;;11.07;4.72;;;;;;;;;;4990391;28;95472;-69
2023/07/31 10:28:01;;;;;;;9.27;5.05;;;;;;;;;;4992250;28;93643;-70
2023/07/31 10:30:29;;;;;;;6.82;4.60;;;;;;;;;;4986190;28;92471;-71
2023/07/31 10:32:56;;;;;;;14.10;5.47;;;;;;;;;;4992065;28;94902;-70
2023/07/31 10:35:23;;;;;;;11.13;4.47;;;;;;;;;;4995957;28;94429;-70
2023/07/31 10:37:49;;;;;;;10.50;5.50;;;;;;;;;;4992591;28;92415;-70
2023/07/31 10:40:17;;;;;;;10.27;5.28;;;;;;;;;;4991162;28;93267;-70
2023/07/31 10:42:47;;;;;;;10.25;5.45;;;;;;;;;;4997823;28;93413;-70
2023/07/31 10:45:24;;;;;;;8.73;4.78;;;;;;;;;;4999242;28;92599;-69
2023/07/31 10:47:57;;;;;;;12.43;5.53;;;;;;;;;;4990819;28;96792;-70
2023/07/31 10:50:23;;;;;;;7.18;5.05;;;;;;;;;;4993860;28;94045;-70
2023/07/31 10:52:51;;;;;;;6.00;4.20;;;;;;;;;;4992148;28;93189;-73
2023/07/31 10:55:38;;;;;;;7.70;4.72;;;;;;;;;;4992513;28;93394;-73
2023/07/31 10:58:09;;;;;;;11.35;5.90;;;;;;;;;;4985495;28;92464;-73
2023/07/31 11:00:35;;;;;;;;;;;;;;;;;;4991015;28;93438;-73
2023/07/31 11:03:03;;;;;;;6.63;4.50;;;;;;;;;;4987479;28;124117;-73
2023/07/31 11:05:46;;;;;;;5.38;3.95;;;;;;;;;;4988905;28;91765;-73
2023/07/31 11:08:12;;;;;;;9.80;4.68;;;;;;;;;;4990769;28;95785;-73
2023/07/31 11:10:39;;;;;;;7.93;4.30;;;;;;;;;;4992515;28;92691;-73
2023/07/31 11:13:05;;;;;;;4.60;3.47;;;;;;;;;;4987441;28;95402;-72
2023/07/31 11:15:31;;;;;;;5.47;3.25;;;;;;;;;;4987163;28;93413;-72
2023/07/31 11:17:59;;;;;;;5.40;3.00;;;;;;;;;;4985702;28;93313;-73
2023/07/31 11:20:27;;;;;;;5.05;2.80;;;;;;;;;;4989012;28;93066;-73
2023/07/31 11:22:53;;;;;;;6.43;2.80;;;;;;;;;;4992923;28;93414;-73
2023/07/31 11:25:19;;;;;;;3.67;2.88;;;;;;;;;;4993451;28;92579;-72
2023/07/31 11:27:46;;;;;;;4.38;3.25;;;;;;;;;;4989471;28;93184;-73
2023/07/31 11:30:12;;;;;;;6.03;3.22;;;;;;;;;;4991439;28;92684;-73
2023/07/31 11:32:39;;;;;;;5.10;3.90;;;;;;;;;;4988092;28;92881;-73
2023/07/31 11:35:08;;;;;;;8.05;3.75;;;;;;;;;;4993171;28;93499;-73
2023/07/31 11:37:41;;;;;;;6.90;3.28;;;;;;;;;;4988934;28;94932;-72
2023/07/31 11:40:08;;;;;;;7.18;4.55;;;;;;;;;;4989299;28;98360;-72
2023/07/31 11:42:35;;;;;;;6.63;4.20;;;;;;;;;;4989524;28;93199;-73
2023/07/31 11:45:05;;;;;;;4.53;4.10;;;;;;;;;;4983461;28;92498;-73
2023/07/31 11:47:34;;;;;;;8.55;4.20;;;;;;;;;;4989477;28;93144;-73
2023/07/31 11:50:01;;;;;;;6.85;4.32;;;;;;;;;;4990986;28;93481;-73
2023/07/31 11:52:29;;;;;;;7.25;3.88;;;;;;;;;;4991216;28;94225;-72
2023/07/31 11:54:56;;;;;;;6.68;4.43;;;;;;;;;;4988512;28;92623;-72
2023/07/31 11:57:22;;;;;;;8.90;4.68;;;;;;;;;;4990897;28;92469;-72
2023/07/31 11:59:49;;;;;;;10.63;5.40;;;;;;;;;;4986649;28;94115;-73
2023/07/31 12:02:16;;;;;;;8.57;5.28;;;;;;;;;;4989956;28;95845;-73
2023/07/31 12:04:43;;;;;;;9.75;4.82;;;;;;;;;;4989649;28;92647;-72
2023/07/31 12:07:09;;;;;;;5.32;4.10;;;;;;;;;;4990946;28;94306;-72
2023/07/31 12:09:35;;;;;;;6.95;3.90;;;;;;;;;;4985282;28;93367;-73
2023/07/31 12:12:07;;;;;;;3.83;3.38;;;;;;;;;;4995018;28;92542;-73
2023/07/31 12:14:33;;;;;;;4.75;3.30;;;;;;;;;;4984924;28;94215;-73
2023/07/31 12:17:03;;;;;;;3.33;3.03;;;;;;;;;;4992373;28;92517;-72
2023/07/31 12:19:30;;;;;;;4.80;3.08;;;;;;;;;;4992951;28;93157;-76
2023/07/31 12:21:58;;;;;;;5.13;3.40;;;;;;;;;;4986908;28;93570;-74
2023/07/31 12:24:26;;;;;;;6.28;3.60;;;;;;;;;;4990884;28;92785;-73
2023/07/31 12:26:52;;;;;;;3.90;2.83;;;;;;;;;;4988226;28;94797;-73
2023/07/31 12:29:19;;;;;;;3.10;2.88;;;;;;;;;;4992015;28;94660;-74
2023/07/31 12:31:45;;;;;;;3.42;2.95;;;;;;;;;;4994431;28;92559;-74
2023/07/31 12:34:18;;;;;;;3.10;2.88;;;;;;;;;;4996617;28;93304;-74
2023/07/31 12:36:44;;;;;;;3.17;2.88;;;;;;;;;;4999120;28;92663;-77
2023/07/31 12:39:11;;;;;;;3.63;3.22;;;;;;;;;;4995813;28;93290;-76
2023/07/31 12:41:37;;;;;;;4.80;3.35;;;;;;;;;;4997871;28;93401;-71
2023/07/31 12:44:03;;;;;;;6.18;3.55;;;;;;;;;;4994196;28;91850;-71
2023/07/31 12:46:30;;;;;;;4.18;3.40;;;;;;;;;;4994576;28;93459;-71
2023/07/31 12:48:56;;;;;;;6.07;3.80;;;;;;;;;;4995286;28;93782;-71
2023/07/31 12:51:23;;;;;;;4.10;3.70;;;;;;;;;;4993808;28;94782;-72
2023/07/31 12:53:49;;;;;;;7.72;3.83;;;;;;;;;;4993445;28;97018;-72
2023/07/31 12:56:17;;;;;;;5.07;3.70;;;;;;;;;;4997598;28;93378;-71
2023/07/31 12:58:43;;;;;;;6.55;3.88;;;;;;;;;;4994659;28;93362;-74
2023/07/31 13:01:10;;;;;;;5.57;3.65;;;;;;;;;;4994438;28;93406;-73
2023/07/31 13:03:36;;;;;;;10.88;4.03;;;;;;;;;;4991066;28;92504;-72
2023/07/31 13:06:03;;;;;;;8.15;4.30;;;;;;;;;;4992381;28;93188;-72
2023/07/31 13:08:29;;;;;;;8.63;4.43;;;;;;;;;;4995404;28;92701;-71
2023/07/31 13:10:55;;;;;;;7.65;4.18;;;;;;;;;;4993785;28;92467;-71
2023/07/31 13:13:24;;;;;;;5.30;4.38;;;;;;;;;;4998818;28;95370;-71
2023/07/31 13:15:50;;;;;;;7.43;4.00;;;;;;;;;;4989744;28;95777;-71
2023/07/31 13:18:17;;;;;;;6.47;3.90;;;;;;;;;;4998621;28;92926;-71
2023/07/31 13:20:43;;;;;;;8.55;3.63;;;;;;;;;;4994574;28;93862;-72
2023/07/31 13:23:10;;;;;;;4.95;3.70;;;;;;;;;;4995155;28;92844;-71
2023/07/31 13:25:36;;;;;;;4.13;3.58;;;;;;;;;;4986584;28;93136;-72
2023/07/31 13:28:02;;;;;;;6.15;3.63;;;;;;;;;;4996359;28;93259;-72
2023/07/31 13:30:29;;;;;;;3.38;2.90;;;;;;;;;;4994804;28;92474;-71
2023/07/31 13:32:55;;;;;;;3.63;3.28;;;;;;;;;;4993537;28;93070;-72
2023/07/31 13:35:22;;;;;;;7.47;3.25;;;;;;;;;;4988838;28;92912;-71
2023/07/31 13:37:48;;;;;;;4.72;3.08;;;;;;;;;;4989413;28;92549;-70
2023/07/31 13:40:15;;;;;;;5.28;3.28;;;;;;;;;;4993067;28;95285;-70
2023/07/31 13:42:41;;;;;;;5.75;3.40;;;;;;;;;;4994053;28;92522;-70
2023/07/31 13:45:08;;;;;;;4.43;3.50;;;;;;;;;;4987822;28;93626;-71
2023/07/31 13:47:34;;;;;;;4.55;3.25;;;;;;;;;;4995122;28;94481;-71
2023/07/31 13:50:01;;;;;;;3.70;3.40;;;;;;;;;;4993615;28;92776;-72
2023/07/31 13:52:27;;;;;;;4.03;3.15;;;;;;;;;;4994126;28;93129;-72
2023/07/31 13:54:54;;;;;;;3.88;3.38;;;;;;;;;;4993264;28;93442;-72
2023/07/31 13:57:20;;;;;;;5.15;4.10;;;;;;;;;;4996267;28;92534;-74
2023/07/31 13:59:46;;;;;;;8.38;6.13;;;;;;;;;;4996969;28;92668;-73
2023/07/31 14:02:14;;;;;;;7.60;5.90;;;;;;;;;;4992516;28;92376;-72
2023/07/31 14:04:41;;;;;;;6.93;6.00;;;;;;;;;;4988408;28;94850;-72
2023/07/31 14:07:07;;;;;;;12.75;6.95;;;;;;;;;;4993219;28;93303;-73
2023/07/31 14:09:34;;;;;;;10.25;6.65;;;;;;;;;;4993554;28;92425;-73
2023/07/31 14:12:00;;;;;;;8.80;7.50;;;;;;;;;;5009140;28;96055;-70
2023/07/31 14:14:26;;;;;;;10.45;7.68;;;;;;;;;;4990361;28;93493;-69
2023/07/31 14:16:53;;;;;;;8.18;7.32;;;;;;;;;;4987777;28;92533;-70
2023/07/31 14:19:20;;;;;;;10.50;9.02;;;;;;;;;;4992781;28;93029;-70
2023/07/31 14:21:47;;;;;;;10.90;8.25;;;;;;;;;;4997889;28;94019;-70
2023/07/31 14:24:26;;;;;;;11.30;8.27;;;;;;;;;;5006573;28;94831;-69
2023/07/31 14:26:52;;;;;;;9.25;7.18;;;;;;;;;;4992065;28;94485;-68
2023/07/31 14:29:18;;;;;;;10.23;8.00;;;;;;;;;;4991404;28;94824;-68
2023/07/31 14:31:45;;;;;;;12.30;8.10;;;;;;;;;;4992734;28;96169;-69
2023/07/31 14:34:11;;;;;;;10.73;7.20;;;;;;;;;;4988595;28;93174;-69